PWSweather.com
Personal Weather Stations
Station Observations
K4FB1
Clubhouse Heritage, Lakeland, FL 33812

Clubhouse HeritageLakeland, FL 33812

Lat: 27.969224, Lon: -81.897769

Elevation: 145

Station Type: Davis Vantage Pro2

http://www.ClubhouseWX.com

High Low Average
Temperature 83.3°F28.5°C 61.6°F16.4°C 69.6°F20.9°C
Dew Point 69.0°F20.6°C -38.4°F-39.1°C -6.4°F-21.3°C
Winds 5.0 mph 8.0 kmh Calm Calm 1.0 mph NE1.6 kmh NE
Wind Gusts 12.0 mph19.3 kmh -- 4.0 mph6.4 kmh
Humidity 69% 0% 18%
Pressure 30.17 in1021.7 mb 30.02 in1016.6 mb -
Precipitation 0.42 in10.7 mm - -
Hour Temp Dew Point Humidity Winds Wind Gusts Pressure Precip Precip Rate Daily Precip Total
12:00 AM 65.0°F18.3°C -38.4°F-39.1°C 0% 2.0 mph SE3.2 kmh SE 6.0 mph9.7 kmh 30.17 in1021.7 mb 0.00 in0.0 mm 0.00 in0.0 mm 0.00 in0.0 mm
12:05 AM 64.9°F18.3°C -38.4°F-39.1°C 0% Calm Calm 2.0 mph3.2 kmh 30.17 in1021.7 mb 0.00 in0.0 mm 0.00 in0.0 mm 0.00 in0.0 mm
12:10 AM 64.9°F18.3°C -38.4°F-39.1°C 0% 1.0 mph SSE1.6 kmh SSE 2.0 mph3.2 kmh 30.18 in1022.0 mb 0.00 in0.0 mm 0.00 in0.0 mm 0.00 in0.0 mm
12:15 AM 64.9°F18.3°C -38.4°F-39.1°C 0% 1.0 mph SSE1.6 kmh SSE 2.0 mph3.2 kmh 30.18 in1022.0 mb 0.00 in0.0 mm 0.00 in0.0 mm 0.00 in0.0 mm
12:20 AM 64.8°F18.2°C -38.4°F-39.1°C 0% 1.0 mph SSE1.6 kmh SSE 2.0 mph3.2 kmh 30.19 in1022.4 mb 0.00 in0.0 mm 0.00 in0.0 mm 0.00 in0.0 mm
12:25 AM 64.8°F18.2°C -38.4°F-39.1°C 0% 1.0 mph SSE1.6 kmh SSE 2.0 mph3.2 kmh 30.18 in1022.0 mb 0.00 in0.0 mm 0.00 in0.0 mm 0.00 in0.0 mm
12:30 AM 64.8°F18.2°C -38.4°F-39.1°C 0% 1.0 mph SSE1.6 kmh SSE 2.0 mph3.2 kmh 30.18 in1022.0 mb 0.00 in0.0 mm 0.00 in0.0 mm 0.00 in0.0 mm
12:35 AM 64.7°F18.2°C -38.4°F-39.1°C 0% 1.0 mph SSE1.6 kmh SSE 2.0 mph3.2 kmh 30.19 in1022.4 mb 0.00 in0.0 mm 0.00 in0.0 mm 0.00 in0.0 mm
12:40 AM 64.8°F18.2°C -38.4°F-39.1°C 0% 1.0 mph SSE1.6 kmh SSE 3.0 mph4.8 kmh 30.18 in1022.0 mb 0.00 in0.0 mm 0.00 in0.0 mm 0.00 in0.0 mm
12:45 AM 64.8°F18.2°C -38.4°F-39.1°C 0% 1.0 mph SSE1.6 kmh SSE 3.0 mph4.8 kmh 30.18 in1022.0 mb 0.00 in0.0 mm 0.00 in0.0 mm 0.00 in0.0 mm
12:50 AM 64.8°F18.2°C -38.4°F-39.1°C 0% 1.0 mph SSE1.6 kmh SSE 2.0 mph3.2 kmh 30.18 in1022.0 mb 0.00 in0.0 mm 0.00 in0.0 mm 0.00 in0.0 mm
12:55 AM 64.9°F18.3°C -38.4°F-39.1°C 0% 1.0 mph SE1.6 kmh SE 3.0 mph4.8 kmh 30.18 in1022.0 mb 0.00 in0.0 mm 0.00 in0.0 mm 0.00 in0.0 mm
01:00 AM 64.9°F18.3°C -38.4°F-39.1°C 0% 1.0 mph SE1.6 kmh SE 3.0 mph4.8 kmh 30.17 in1021.7 mb 0.00 in0.0 mm 0.00 in0.0 mm 0.00 in0.0 mm
01:05 AM 65.0°F18.3°C -38.4°F-39.1°C 0% 1.0 mph ESE1.6 kmh ESE 5.0 mph8.0 kmh 30.17 in1021.7 mb 0.00 in0.0 mm 0.00 in0.0 mm 0.00 in0.0 mm
01:10 AM 65.0°F18.3°C -38.4°F-39.1°C 0% 2.0 mph E3.2 kmh E 5.0 mph8.0 kmh 30.17 in1021.7 mb 0.00 in0.0 mm 0.00 in0.0 mm 0.00 in0.0 mm
01:15 AM 65.0°F18.3°C -38.4°F-39.1°C 0% 2.0 mph ENE3.2 kmh ENE 4.0 mph6.4 kmh 30.16 in1021.3 mb 0.00 in0.0 mm 0.00 in0.0 mm 0.00 in0.0 mm
01:20 AM 65.0°F18.3°C -38.4°F-39.1°C 0% 1.0 mph ENE1.6 kmh ENE 4.0 mph6.4 kmh 30.16 in1021.3 mb 0.00 in0.0 mm 0.00 in0.0 mm 0.00 in0.0 mm
01:25 AM 64.9°F18.3°C -38.4°F-39.1°C 0% 2.0 mph ENE3.2 kmh ENE 4.0 mph6.4 kmh 30.16 in1021.3 mb 0.00 in0.0 mm 0.00 in0.0 mm 0.00 in0.0 mm
01:30 AM 64.9°F18.3°C -38.4°F-39.1°C 0% 2.0 mph NE3.2 kmh NE 4.0 mph6.4 kmh 30.16 in1021.3 mb 0.00 in0.0 mm 0.00 in0.0 mm 0.00 in0.0 mm
01:35 AM 64.7°F18.2°C -38.4°F-39.1°C 0% 2.0 mph NE3.2 kmh NE 4.0 mph6.4 kmh 30.16 in1021.3 mb 0.00 in0.0 mm 0.00 in0.0 mm 0.00 in0.0 mm
01:40 AM 64.6°F18.1°C -38.4°F-39.1°C 0% 1.0 mph NE1.6 kmh NE 4.0 mph6.4 kmh 30.16 in1021.3 mb 0.00 in0.0 mm 0.00 in0.0 mm 0.00 in0.0 mm
01:45 AM 64.5°F18.1°C -38.4°F-39.1°C 0% 1.0 mph NE1.6 kmh NE 3.0 mph4.8 kmh 30.16 in1021.3 mb 0.00 in0.0 mm 0.00 in0.0 mm 0.00 in0.0 mm
01:50 AM 64.3°F17.9°C -38.4°F-39.1°C 0% 1.0 mph NE1.6 kmh NE 3.0 mph4.8 kmh 30.15 in1021.0 mb 0.00 in0.0 mm 0.00 in0.0 mm 0.00 in0.0 mm
01:55 AM 64.1°F17.8°C -38.4°F-39.1°C 0% Calm Calm 3.0 mph4.8 kmh 30.16 in1021.3 mb 0.00 in0.0 mm 0.00 in0.0 mm 0.00 in0.0 mm
02:00 AM 64.0°F17.8°C -38.4°F-39.1°C 0% Calm Calm 2.0 mph3.2 kmh 30.16 in1021.3 mb 0.00 in0.0 mm 0.00 in0.0 mm 0.00 in0.0 mm
02:05 AM 63.8°F17.7°C -38.4°F-39.1°C 0% Calm Calm 2.0 mph3.2 kmh 30.15 in1021.0 mb 0.00 in0.0 mm 0.00 in0.0 mm 0.00 in0.0 mm
02:10 AM 63.6°F17.6°C -38.4°F-39.1°C 0% Calm Calm 1.0 mph1.6 kmh 30.15 in1021.0 mb 0.00 in0.0 mm 0.00 in0.0 mm 0.00 in0.0 mm
02:15 AM 63.5°F17.5°C -38.4°F-39.1°C 0% Calm Calm 2.0 mph3.2 kmh 30.15 in1021.0 mb 0.00 in0.0 mm 0.00 in0.0 mm 0.00 in0.0 mm
02:20 AM 63.4°F17.4°C -38.4°F-39.1°C 0% 1.0 mph NE1.6 kmh NE 2.0 mph3.2 kmh 30.15 in1021.0 mb 0.00 in0.0 mm 0.00 in0.0 mm 0.00 in0.0 mm
02:25 AM 63.3°F17.4°C -38.4°F-39.1°C 0% 1.0 mph NE1.6 kmh NE 1.0 mph1.6 kmh 30.15 in1021.0 mb 0.00 in0.0 mm 0.00 in0.0 mm 0.00 in0.0 mm
02:30 AM 63.3°F17.4°C -38.4°F-39.1°C 0% 1.0 mph NE1.6 kmh NE 2.0 mph3.2 kmh 30.15 in1021.0 mb 0.00 in0.0 mm 0.00 in0.0 mm 0.00 in0.0 mm
02:35 AM 63.2°F17.3°C -38.4°F-39.1°C 0% 1.0 mph NE1.6 kmh NE 2.0 mph3.2 kmh 30.15 in1021.0 mb 0.00 in0.0 mm 0.00 in0.0 mm 0.00 in0.0 mm
02:40 AM 63.1°F17.3°C -38.4°F-39.1°C 0% Calm Calm 2.0 mph3.2 kmh 30.15 in1021.0 mb 0.00 in0.0 mm 0.00 in0.0 mm 0.00 in0.0 mm
02:45 AM 62.9°F17.2°C -38.4°F-39.1°C 0% Calm Calm 1.0 mph1.6 kmh 30.15 in1021.0 mb 0.00 in0.0 mm 0.00 in0.0 mm 0.00 in0.0 mm
02:50 AM 62.7°F17.1°C -38.4°F-39.1°C 0% Calm Calm 1.0 mph1.6 kmh 30.15 in1021.0 mb 0.00 in0.0 mm 0.00 in0.0 mm 0.00 in0.0 mm
02:55 AM 62.5°F16.9°C -38.4°F-39.1°C 0% Calm Calm 1.0 mph1.6 kmh 30.15 in1021.0 mb 0.00 in0.0 mm 0.00 in0.0 mm 0.00 in0.0 mm
03:00 AM 62.3°F16.8°C -38.4°F-39.1°C 0% Calm Calm 1.0 mph1.6 kmh 30.15 in1021.0 mb 0.00 in0.0 mm 0.00 in0.0 mm 0.00 in0.0 mm
03:05 AM 62.2°F16.8°C -38.4°F-39.1°C 0% 1.0 mph NE1.6 kmh NE 1.0 mph1.6 kmh 30.15 in1021.0 mb 0.00 in0.0 mm 0.00 in0.0 mm 0.00 in0.0 mm
03:10 AM 62.0°F16.7°C -38.4°F-39.1°C 0% Calm Calm 1.0 mph1.6 kmh 30.15 in1021.0 mb 0.00 in0.0 mm 0.00 in0.0 mm 0.00 in0.0 mm
03:15 AM 61.8°F16.6°C -38.4°F-39.1°C 0% Calm Calm 1.0 mph1.6 kmh 30.15 in1021.0 mb 0.00 in0.0 mm 0.00 in0.0 mm 0.00 in0.0 mm
03:20 AM 61.6°F16.4°C -38.4°F-39.1°C 0% Calm Calm -- 30.15 in1021.0 mb 0.00 in0.0 mm 0.00 in0.0 mm 0.00 in0.0 mm
03:25 AM 61.6°F16.4°C -38.4°F-39.1°C 0% Calm Calm 1.0 mph1.6 kmh 30.15 in1021.0 mb 0.00 in0.0 mm 0.00 in0.0 mm 0.00 in0.0 mm
03:30 AM 61.7°F16.5°C -38.4°F-39.1°C 0% Calm Calm 1.0 mph1.6 kmh 30.15 in1021.0 mb 0.00 in0.0 mm 0.00 in0.0 mm 0.00 in0.0 mm
03:35 AM 61.8°F16.6°C -38.4°F-39.1°C 0% Calm Calm -- 30.14 in1020.7 mb 0.00 in0.0 mm 0.00 in0.0 mm 0.00 in0.0 mm
03:40 AM 61.8°F16.6°C -38.4°F-39.1°C 0% Calm Calm 1.0 mph1.6 kmh 30.14 in1020.7 mb 0.00 in0.0 mm 0.00 in0.0 mm 0.00 in0.0 mm
03:45 AM 61.7°F16.5°C -38.4°F-39.1°C 0% Calm Calm 2.0 mph3.2 kmh 30.14 in1020.7 mb 0.00 in0.0 mm 0.00 in0.0 mm 0.00 in0.0 mm
03:50 AM 61.7°F16.5°C -38.4°F-39.1°C 0% Calm Calm 2.0 mph3.2 kmh 30.14 in1020.7 mb 0.00 in0.0 mm 0.00 in0.0 mm 0.00 in0.0 mm
03:55 AM 61.7°F16.5°C -38.4°F-39.1°C 0% Calm Calm 2.0 mph3.2 kmh 30.13 in1020.3 mb 0.00 in0.0 mm 0.00 in0.0 mm 0.00 in0.0 mm
04:00 AM 61.7°F16.5°C -38.4°F-39.1°C 0% Calm Calm 2.0 mph3.2 kmh 30.13 in1020.3 mb 0.00 in0.0 mm 0.00 in0.0 mm 0.00 in0.0 mm
04:05 AM 61.7°F16.5°C -38.4°F-39.1°C 0% Calm Calm 2.0 mph3.2 kmh 30.13 in1020.3 mb 0.00 in0.0 mm 0.00 in0.0 mm 0.00 in0.0 mm
04:10 AM 61.8°F16.6°C -38.4°F-39.1°C 0% Calm Calm 1.0 mph1.6 kmh 30.13 in1020.3 mb 0.00 in0.0 mm 0.00 in0.0 mm 0.00 in0.0 mm
04:15 AM 61.8°F16.6°C -38.4°F-39.1°C 0% Calm Calm 3.0 mph4.8 kmh 30.12 in1020.0 mb 0.00 in0.0 mm 0.00 in0.0 mm 0.00 in0.0 mm
04:20 AM 61.8°F16.6°C -38.4°F-39.1°C 0% 1.0 mph NE1.6 kmh NE 3.0 mph4.8 kmh 30.13 in1020.3 mb 0.00 in0.0 mm 0.00 in0.0 mm 0.00 in0.0 mm
04:25 AM 61.9°F16.6°C -38.4°F-39.1°C 0% Calm Calm 2.0 mph3.2 kmh 30.13 in1020.3 mb 0.00 in0.0 mm 0.00 in0.0 mm 0.00 in0.0 mm
04:30 AM 62.1°F16.7°C -38.4°F-39.1°C 0% Calm Calm 2.0 mph3.2 kmh 30.13 in1020.3 mb 0.00 in0.0 mm 0.00 in0.0 mm 0.00 in0.0 mm
04:35 AM 62.3°F16.8°C -38.4°F-39.1°C 0% Calm Calm 2.0 mph3.2 kmh 30.13 in1020.3 mb 0.00 in0.0 mm 0.00 in0.0 mm 0.00 in0.0 mm
04:40 AM 62.4°F16.9°C -38.4°F-39.1°C 0% Calm Calm 1.0 mph1.6 kmh 30.14 in1020.7 mb 0.00 in0.0 mm 0.00 in0.0 mm 0.00 in0.0 mm
04:45 AM 62.6°F17.0°C -38.4°F-39.1°C 0% 1.0 mph NE1.6 kmh NE 2.0 mph3.2 kmh 30.13 in1020.3 mb 0.00 in0.0 mm 0.00 in0.0 mm 0.00 in0.0 mm
04:50 AM 62.6°F17.0°C -38.4°F-39.1°C 0% 1.0 mph NE1.6 kmh NE 2.0 mph3.2 kmh 30.13 in1020.3 mb 0.00 in0.0 mm 0.00 in0.0 mm 0.00 in0.0 mm
04:55 AM 62.6°F17.0°C -38.4°F-39.1°C 0% Calm Calm 1.0 mph1.6 kmh 30.13 in1020.3 mb 0.00 in0.0 mm 0.00 in0.0 mm 0.00 in0.0 mm
05:00 AM 62.6°F17.0°C -38.4°F-39.1°C 0% Calm Calm 1.0 mph1.6 kmh 30.13 in1020.3 mb 0.00 in0.0 mm 0.00 in0.0 mm 0.00 in0.0 mm
05:05 AM 62.6°F17.0°C -38.4°F-39.1°C 0% Calm Calm 1.0 mph1.6 kmh 30.13 in1020.3 mb 0.00 in0.0 mm 0.00 in0.0 mm 0.00 in0.0 mm
05:10 AM 62.5°F16.9°C -38.4°F-39.1°C 0% Calm Calm 1.0 mph1.6 kmh 30.13 in1020.3 mb 0.00 in0.0 mm 0.00 in0.0 mm 0.00 in0.0 mm
05:15 AM 62.5°F16.9°C -38.4°F-39.1°C 0% Calm Calm 1.0 mph1.6 kmh 30.13 in1020.3 mb 0.00 in0.0 mm 0.00 in0.0 mm 0.00 in0.0 mm
05:20 AM 62.5°F16.9°C -38.4°F-39.1°C 0% Calm Calm 1.0 mph1.6 kmh 30.13 in1020.3 mb 0.00 in0.0 mm 0.00 in0.0 mm 0.00 in0.0 mm
05:25 AM 62.6°F17.0°C -38.4°F-39.1°C 0% Calm Calm 1.0 mph1.6 kmh 30.13 in1020.3 mb 0.00 in0.0 mm 0.00 in0.0 mm 0.00 in0.0 mm
05:30 AM 62.7°F17.1°C -38.4°F-39.1°C 0% Calm Calm 1.0 mph1.6 kmh 30.13 in1020.3 mb 0.00 in0.0 mm 0.00 in0.0 mm 0.00 in0.0 mm
05:35 AM 62.7°F17.1°C -38.4°F-39.1°C 0% Calm Calm 1.0 mph1.6 kmh 30.13 in1020.3 mb 0.00 in0.0 mm 0.00 in0.0 mm 0.00 in0.0 mm
05:40 AM 62.9°F17.2°C -38.4°F-39.1°C 0% 1.0 mph NE1.6 kmh NE 2.0 mph3.2 kmh 30.13 in1020.3 mb 0.00 in0.0 mm 0.00 in0.0 mm 0.00 in0.0 mm
05:45 AM 63.0°F17.2°C -38.4°F-39.1°C 0% 1.0 mph NE1.6 kmh NE 2.0 mph3.2 kmh 30.13 in1020.3 mb 0.00 in0.0 mm 0.00 in0.0 mm 0.00 in0.0 mm
05:50 AM 63.1°F17.3°C -38.4°F-39.1°C 0% Calm Calm 2.0 mph3.2 kmh 30.12 in1020.0 mb 0.00 in0.0 mm 0.00 in0.0 mm 0.00 in0.0 mm
05:55 AM 63.3°F17.4°C -38.4°F-39.1°C 0% 1.0 mph SE1.6 kmh SE 4.0 mph6.4 kmh 30.13 in1020.3 mb 0.00 in0.0 mm 0.00 in0.0 mm 0.00 in0.0 mm
06:00 AM 63.5°F17.5°C -38.4°F-39.1°C 0% 1.0 mph SSE1.6 kmh SSE 4.0 mph6.4 kmh 30.13 in1020.3 mb 0.00 in0.0 mm 0.00 in0.0 mm 0.00 in0.0 mm
06:05 AM 63.6°F17.6°C -38.4°F-39.1°C 0% Calm Calm 2.0 mph3.2 kmh 30.13 in1020.3 mb 0.00 in0.0 mm 0.00 in0.0 mm 0.00 in0.0 mm
06:10 AM 63.7°F17.6°C -38.4°F-39.1°C 0% Calm Calm 2.0 mph3.2 kmh 30.13 in1020.3 mb 0.00 in0.0 mm 0.00 in0.0 mm 0.00 in0.0 mm
06:15 AM 63.8°F17.7°C -38.4°F-39.1°C 0% Calm Calm 3.0 mph4.8 kmh 30.13 in1020.3 mb 0.00 in0.0 mm 0.00 in0.0 mm 0.00 in0.0 mm
06:20 AM 63.9°F17.7°C -38.4°F-39.1°C 0% 1.0 mph S1.6 kmh S 3.0 mph4.8 kmh 30.13 in1020.3 mb 0.00 in0.0 mm 0.00 in0.0 mm 0.00 in0.0 mm
06:25 AM 63.9°F17.7°C -38.4°F-39.1°C 0% Calm Calm 2.0 mph3.2 kmh 30.13 in1020.3 mb 0.00 in0.0 mm 0.00 in0.0 mm 0.00 in0.0 mm
06:30 AM 64.0°F17.8°C -38.4°F-39.1°C 0% 1.0 mph S1.6 kmh S 2.0 mph3.2 kmh 30.13 in1020.3 mb 0.00 in0.0 mm 0.00 in0.0 mm 0.00 in0.0 mm
06:35 AM 64.1°F17.8°C -38.4°F-39.1°C 0% 1.0 mph S1.6 kmh S 2.0 mph3.2 kmh 30.13 in1020.3 mb 0.00 in0.0 mm 0.00 in0.0 mm 0.00 in0.0 mm
06:40 AM 64.1°F17.8°C -38.4°F-39.1°C 0% Calm Calm 2.0 mph3.2 kmh 30.13 in1020.3 mb 0.00 in0.0 mm 0.00 in0.0 mm 0.00 in0.0 mm
06:45 AM 64.1°F17.8°C -38.4°F-39.1°C 0% Calm Calm 1.0 mph1.6 kmh 30.13 in1020.3 mb 0.00 in0.0 mm 0.00 in0.0 mm 0.00 in0.0 mm
06:50 AM 64.2°F17.9°C -38.4°F-39.1°C 0% Calm Calm 1.0 mph1.6 kmh 30.13 in1020.3 mb 0.00 in0.0 mm 0.00 in0.0 mm 0.00 in0.0 mm
06:55 AM 64.3°F17.9°C -38.4°F-39.1°C 0% Calm Calm 2.0 mph3.2 kmh 30.13 in1020.3 mb 0.00 in0.0 mm 0.00 in0.0 mm 0.00 in0.0 mm
07:00 AM 64.3°F17.9°C -38.4°F-39.1°C 0% 1.0 mph S1.6 kmh S 2.0 mph3.2 kmh 30.13 in1020.3 mb 0.00 in0.0 mm 0.00 in0.0 mm 0.00 in0.0 mm
07:05 AM 64.3°F17.9°C -38.4°F-39.1°C 0% 1.0 mph S1.6 kmh S 2.0 mph3.2 kmh 30.13 in1020.3 mb 0.00 in0.0 mm 0.00 in0.0 mm 0.00 in0.0 mm
07:10 AM 64.3°F17.9°C -38.4°F-39.1°C 0% 1.0 mph S1.6 kmh S 2.0 mph3.2 kmh 30.13 in1020.3 mb 0.00 in0.0 mm 0.00 in0.0 mm 0.00 in0.0 mm
07:15 AM 64.3°F17.9°C -38.4°F-39.1°C 0% 1.0 mph S1.6 kmh S 4.0 mph6.4 kmh 30.12 in1020.0 mb 0.00 in0.0 mm 0.00 in0.0 mm 0.00 in0.0 mm
07:20 AM 64.3°F17.9°C -38.4°F-39.1°C 0% 1.0 mph SSE1.6 kmh SSE 4.0 mph6.4 kmh 30.13 in1020.3 mb 0.00 in0.0 mm 0.00 in0.0 mm 0.00 in0.0 mm
07:25 AM 64.2°F17.9°C -38.4°F-39.1°C 0% 1.0 mph SE1.6 kmh SE 3.0 mph4.8 kmh 30.13 in1020.3 mb 0.00 in0.0 mm 0.00 in0.0 mm 0.00 in0.0 mm
07:30 AM 64.2°F17.9°C -38.4°F-39.1°C 0% 1.0 mph SE1.6 kmh SE 3.0 mph4.8 kmh 30.13 in1020.3 mb 0.00 in0.0 mm 0.00 in0.0 mm 0.00 in0.0 mm
07:35 AM 64.2°F17.9°C -38.4°F-39.1°C 0% 1.0 mph SE1.6 kmh SE 3.0 mph4.8 kmh 30.13 in1020.3 mb 0.00 in0.0 mm 0.00 in0.0 mm 0.00 in0.0 mm
07:40 AM 64.1°F17.8°C -38.4°F-39.1°C 0% Calm Calm 2.0 mph3.2 kmh 30.13 in1020.3 mb 0.00 in0.0 mm 0.00 in0.0 mm 0.00 in0.0 mm
07:45 AM 64.1°F17.8°C -38.4°F-39.1°C 0% Calm Calm 2.0 mph3.2 kmh 30.13 in1020.3 mb 0.00 in0.0 mm 0.00 in0.0 mm 0.00 in0.0 mm
07:50 AM 64.0°F17.8°C -38.4°F-39.1°C 0% Calm Calm 2.0 mph3.2 kmh 30.13 in1020.3 mb 0.00 in0.0 mm 0.00 in0.0 mm 0.00 in0.0 mm
07:55 AM 64.0°F17.8°C -38.4°F-39.1°C 0% Calm Calm 2.0 mph3.2 kmh 30.13 in1020.3 mb 0.00 in0.0 mm 0.00 in0.0 mm 0.00 in0.0 mm
08:00 AM 63.9°F17.7°C -38.4°F-39.1°C 0% Calm Calm 1.0 mph1.6 kmh 30.13 in1020.3 mb 0.00 in0.0 mm 0.00 in0.0 mm 0.00 in0.0 mm
08:05 AM 63.8°F17.7°C -38.4°F-39.1°C 0% Calm Calm 1.0 mph1.6 kmh 30.13 in1020.3 mb 0.00 in0.0 mm 0.00 in0.0 mm 0.00 in0.0 mm
08:10 AM 63.6°F17.6°C -38.4°F-39.1°C 0% Calm Calm 1.0 mph1.6 kmh 30.14 in1020.7 mb 0.00 in0.0 mm 0.00 in0.0 mm 0.00 in0.0 mm
08:15 AM 63.5°F17.5°C -38.4°F-39.1°C 0% Calm Calm 1.0 mph1.6 kmh 30.13 in1020.3 mb 0.00 in0.0 mm 0.00 in0.0 mm 0.00 in0.0 mm
08:20 AM 63.4°F17.4°C -38.4°F-39.1°C 0% Calm Calm -- 30.14 in1020.7 mb 0.00 in0.0 mm 0.00 in0.0 mm 0.00 in0.0 mm
08:25 AM 63.2°F17.3°C -38.4°F-39.1°C 0% Calm Calm -- 30.14 in1020.7 mb 0.00 in0.0 mm 0.00 in0.0 mm 0.00 in0.0 mm
08:30 AM 63.0°F17.2°C -38.4°F-39.1°C 0% Calm Calm -- 30.14 in1020.7 mb 0.00 in0.0 mm 0.00 in0.0 mm 0.00 in0.0 mm
08:35 AM 62.9°F17.2°C -38.4°F-39.1°C 0% Calm Calm -- 30.14 in1020.7 mb 0.00 in0.0 mm 0.00 in0.0 mm 0.00 in0.0 mm
08:40 AM 62.8°F17.1°C -38.4°F-39.1°C 0% Calm Calm 1.0 mph1.6 kmh 30.14 in1020.7 mb 0.00 in0.0 mm 0.00 in0.0 mm 0.00 in0.0 mm
08:45 AM 62.7°F17.1°C -38.4°F-39.1°C 0% Calm Calm 1.0 mph1.6 kmh 30.14 in1020.7 mb 0.00 in0.0 mm 0.00 in0.0 mm 0.00 in0.0 mm
08:50 AM 62.8°F17.1°C -38.4°F-39.1°C 0% Calm Calm 1.0 mph1.6 kmh 30.14 in1020.7 mb 0.00 in0.0 mm 0.00 in0.0 mm 0.00 in0.0 mm
08:55 AM 63.1°F17.3°C -38.4°F-39.1°C 0% Calm Calm 1.0 mph1.6 kmh 30.14 in1020.7 mb 0.00 in0.0 mm 0.00 in0.0 mm 0.00 in0.0 mm
09:00 AM 63.4°F17.4°C -38.4°F-39.1°C 0% 1.0 mph SE1.6 kmh SE 2.0 mph3.2 kmh 30.14 in1020.7 mb 0.00 in0.0 mm 0.00 in0.0 mm 0.00 in0.0 mm
09:05 AM 63.8°F17.7°C -38.4°F-39.1°C 0% 1.0 mph SE1.6 kmh SE 2.0 mph3.2 kmh 30.14 in1020.7 mb 0.00 in0.0 mm 0.00 in0.0 mm 0.00 in0.0 mm
09:10 AM 64.1°F17.8°C -38.4°F-39.1°C 0% 1.0 mph SE1.6 kmh SE 2.0 mph3.2 kmh 30.14 in1020.7 mb 0.00 in0.0 mm 0.00 in0.0 mm 0.00 in0.0 mm
09:15 AM 64.4°F18.0°C -38.4°F-39.1°C 0% 2.0 mph SE3.2 kmh SE 4.0 mph6.4 kmh 30.14 in1020.7 mb 0.00 in0.0 mm 0.00 in0.0 mm 0.00 in0.0 mm
09:20 AM 64.8°F18.2°C -38.4°F-39.1°C 0% 2.0 mph SE3.2 kmh SE 4.0 mph6.4 kmh 30.14 in1020.7 mb 0.00 in0.0 mm 0.00 in0.0 mm 0.00 in0.0 mm
09:25 AM 65.0°F18.3°C -38.4°F-39.1°C 0% 2.0 mph ESE3.2 kmh ESE 5.0 mph8.0 kmh 30.14 in1020.7 mb 0.00 in0.0 mm 0.00 in0.0 mm 0.00 in0.0 mm
09:30 AM 65.1°F18.4°C -38.4°F-39.1°C 0% 2.0 mph ENE3.2 kmh ENE 5.0 mph8.0 kmh 30.15 in1021.0 mb 0.00 in0.0 mm 0.00 in0.0 mm 0.00 in0.0 mm
09:35 AM 65.2°F18.4°C -38.4°F-39.1°C 0% 2.0 mph ENE3.2 kmh ENE 7.0 mph11.3 kmh 30.15 in1021.0 mb 0.00 in0.0 mm 0.00 in0.0 mm 0.00 in0.0 mm
09:40 AM 65.4°F18.6°C -38.4°F-39.1°C 0% 2.0 mph ENE3.2 kmh ENE 7.0 mph11.3 kmh 30.14 in1020.7 mb 0.00 in0.0 mm 0.00 in0.0 mm 0.00 in0.0 mm
09:45 AM 65.8°F18.8°C -38.4°F-39.1°C 0% 2.0 mph ENE3.2 kmh ENE 4.0 mph6.4 kmh 30.14 in1020.7 mb 0.00 in0.0 mm 0.00 in0.0 mm 0.00 in0.0 mm
09:50 AM 66.3°F19.1°C -38.4°F-39.1°C 0% 2.0 mph ENE3.2 kmh ENE 4.0 mph6.4 kmh 30.14 in1020.7 mb 0.00 in0.0 mm 0.00 in0.0 mm 0.00 in0.0 mm
09:55 AM 66.8°F19.3°C -38.4°F-39.1°C 0% 2.0 mph ENE3.2 kmh ENE 3.0 mph4.8 kmh 30.15 in1021.0 mb 0.00 in0.0 mm 0.00 in0.0 mm 0.00 in0.0 mm
10:00 AM 67.4°F19.7°C -38.4°F-39.1°C 0% 1.0 mph E1.6 kmh E 4.0 mph6.4 kmh 30.15 in1021.0 mb 0.00 in0.0 mm 0.00 in0.0 mm 0.00 in0.0 mm
10:05 AM 67.9°F19.9°C -38.4°F-39.1°C 0% 1.0 mph E1.6 kmh E 5.0 mph8.0 kmh 30.15 in1021.0 mb 0.00 in0.0 mm 0.00 in0.0 mm 0.00 in0.0 mm
10:10 AM 68.3°F20.2°C -38.4°F-39.1°C 0% 2.0 mph E3.2 kmh E 5.0 mph8.0 kmh 30.15 in1021.0 mb 0.00 in0.0 mm 0.00 in0.0 mm 0.00 in0.0 mm
10:15 AM 68.6°F20.3°C -38.4°F-39.1°C 0% 3.0 mph E4.8 kmh E 8.0 mph12.9 kmh 30.15 in1021.0 mb 0.00 in0.0 mm 0.00 in0.0 mm 0.00 in0.0 mm
10:20 AM 69.0°F20.6°C -38.4°F-39.1°C 0% 2.0 mph E3.2 kmh E 8.0 mph12.9 kmh 30.15 in1021.0 mb 0.00 in0.0 mm 0.00 in0.0 mm 0.00 in0.0 mm
10:25 AM 69.1°F20.6°C -38.4°F-39.1°C 0% 2.0 mph E3.2 kmh E 6.0 mph9.7 kmh 30.14 in1020.7 mb 0.00 in0.0 mm 0.00 in0.0 mm 0.00 in0.0 mm
10:30 AM 69.4°F20.8°C -38.4°F-39.1°C 0% 2.0 mph E3.2 kmh E 7.0 mph11.3 kmh 30.15 in1021.0 mb 0.00 in0.0 mm 0.00 in0.0 mm 0.00 in0.0 mm
10:35 AM 69.5°F20.8°C -38.4°F-39.1°C 0% 4.0 mph E6.4 kmh E 10.0 mph16.1 kmh 30.14 in1020.7 mb 0.00 in0.0 mm 0.00 in0.0 mm 0.00 in0.0 mm
10:40 AM 69.8°F21.0°C -38.4°F-39.1°C 0% 3.0 mph E4.8 kmh E 10.0 mph16.1 kmh 30.14 in1020.7 mb 0.00 in0.0 mm 0.00 in0.0 mm 0.00 in0.0 mm
10:45 AM 70.2°F21.2°C -38.4°F-39.1°C 0% 2.0 mph E3.2 kmh E 7.0 mph11.3 kmh 30.15 in1021.0 mb 0.00 in0.0 mm 0.00 in0.0 mm 0.00 in0.0 mm
10:50 AM 70.8°F21.6°C -38.4°F-39.1°C 0% 2.0 mph ESE3.2 kmh ESE 7.0 mph11.3 kmh 30.15 in1021.0 mb 0.00 in0.0 mm 0.00 in0.0 mm 0.00 in0.0 mm
10:55 AM 71.4°F21.9°C -13.6°F-25.3°C 3% 3.0 mph ESE4.8 kmh ESE 7.0 mph11.3 kmh 30.15 in1021.0 mb 0.00 in0.0 mm 0.00 in0.0 mm 0.00 in0.0 mm
11:00 AM 72.0°F22.2°C 7.4°F-13.7°C 8% 2.0 mph ESE3.2 kmh ESE 6.0 mph9.7 kmh 30.15 in1021.0 mb 0.00 in0.0 mm 0.00 in0.0 mm 0.00 in0.0 mm
11:05 AM 72.7°F22.6°C 22.3°F-5.4°C 15% 2.0 mph E3.2 kmh E 5.0 mph8.0 kmh 30.15 in1021.0 mb 0.00 in0.0 mm 0.00 in0.0 mm 0.00 in0.0 mm
11:10 AM 73.1°F22.8°C 35.2°F1.8°C 25% 2.0 mph ESE3.2 kmh ESE 5.0 mph8.0 kmh 30.15 in1021.0 mb 0.00 in0.0 mm 0.00 in0.0 mm 0.00 in0.0 mm
11:15 AM 73.5°F23.1°C 33.4°F0.8°C 23% 3.0 mph ESE4.8 kmh ESE 6.0 mph9.7 kmh 30.15 in1021.0 mb 0.00 in0.0 mm 0.00 in0.0 mm 0.00 in0.0 mm
11:20 AM 73.8°F23.2°C 36.8°F2.7°C 26% 2.0 mph E3.2 kmh E 6.0 mph9.7 kmh 30.16 in1021.3 mb 0.00 in0.0 mm 0.00 in0.0 mm 0.00 in0.0 mm
11:25 AM 74.4°F23.6°C 42.6°F5.9°C 32% 2.0 mph ESE3.2 kmh ESE 5.0 mph8.0 kmh 30.15 in1021.0 mb 0.00 in0.0 mm 0.00 in0.0 mm 0.00 in0.0 mm
11:30 AM 74.9°F23.8°C 43.8°F6.6°C 33% 2.0 mph ESE3.2 kmh ESE 6.0 mph9.7 kmh 30.15 in1021.0 mb 0.00 in0.0 mm 0.00 in0.0 mm 0.00 in0.0 mm
11:35 AM 75.1°F23.9°C 44.8°F7.1°C 34% 2.0 mph E3.2 kmh E 7.0 mph11.3 kmh 30.16 in1021.3 mb 0.00 in0.0 mm 0.00 in0.0 mm 0.00 in0.0 mm
11:40 AM 75.7°F24.3°C 49.7°F9.8°C 40% 3.0 mph E4.8 kmh E 7.0 mph11.3 kmh 30.15 in1021.0 mb 0.00 in0.0 mm 0.00 in0.0 mm 0.00 in0.0 mm
11:45 AM 76.1°F24.5°C 52.0°F11.1°C 43% 3.0 mph E4.8 kmh E 7.0 mph11.3 kmh 30.15 in1021.0 mb 0.00 in0.0 mm 0.00 in0.0 mm 0.00 in0.0 mm
11:50 AM 76.3°F24.6°C 52.2°F11.2°C 43% 2.0 mph E3.2 kmh E 5.0 mph8.0 kmh 30.15 in1021.0 mb 0.00 in0.0 mm 0.00 in0.0 mm 0.00 in0.0 mm
11:55 AM 76.4°F24.7°C 53.5°F11.9°C 45% 2.0 mph ESE3.2 kmh ESE 5.0 mph8.0 kmh 30.15 in1021.0 mb 0.00 in0.0 mm 0.00 in0.0 mm 0.00 in0.0 mm
12:00 PM 76.6°F24.8°C 54.9°F12.7°C 47% 2.0 mph SE3.2 kmh SE 5.0 mph8.0 kmh 30.15 in1021.0 mb 0.00 in0.0 mm 0.00 in0.0 mm 0.00 in0.0 mm
12:05 PM 76.8°F24.9°C 55.0°F12.8°C 47% 2.0 mph ESE3.2 kmh ESE 6.0 mph9.7 kmh 30.15 in1021.0 mb 0.00 in0.0 mm 0.00 in0.0 mm 0.00 in0.0 mm
12:10 PM 77.1°F25.1°C 55.3°F12.9°C 47% 2.0 mph ESE3.2 kmh ESE 7.0 mph11.3 kmh 30.14 in1020.7 mb 0.00 in0.0 mm 0.00 in0.0 mm 0.00 in0.0 mm
12:15 PM 77.6°F25.3°C 57.5°F14.2°C 50% 2.0 mph SE3.2 kmh SE 7.0 mph11.3 kmh 30.14 in1020.7 mb 0.00 in0.0 mm 0.00 in0.0 mm 0.00 in0.0 mm
12:20 PM 78.2°F25.7°C 59.7°F15.4°C 53% 3.0 mph ESE4.8 kmh ESE 7.0 mph11.3 kmh 30.14 in1020.7 mb 0.00 in0.0 mm 0.00 in0.0 mm 0.00 in0.0 mm
12:25 PM 78.3°F25.7°C 61.8°F16.6°C 57% 2.0 mph SE3.2 kmh SE 7.0 mph11.3 kmh 30.13 in1020.3 mb 0.00 in0.0 mm 0.00 in0.0 mm 0.00 in0.0 mm
12:30 PM 78.5°F25.8°C 61.0°F16.1°C 55% 2.0 mph ESE3.2 kmh ESE 4.0 mph6.4 kmh 30.13 in1020.3 mb 0.00 in0.0 mm 0.00 in0.0 mm 0.00 in0.0 mm
12:35 PM 78.4°F25.8°C 62.4°F16.9°C 58% 2.0 mph E3.2 kmh E 7.0 mph11.3 kmh 30.13 in1020.3 mb 0.00 in0.0 mm 0.00 in0.0 mm 0.00 in0.0 mm
12:40 PM 78.5°F25.8°C 61.0°F16.1°C 55% 3.0 mph E4.8 kmh E 7.0 mph11.3 kmh 30.13 in1020.3 mb 0.00 in0.0 mm 0.00 in0.0 mm 0.00 in0.0 mm
12:45 PM 78.9°F26.1°C 63.4°F17.4°C 59% 2.0 mph E3.2 kmh E 6.0 mph9.7 kmh 30.13 in1020.3 mb 0.00 in0.0 mm 0.00 in0.0 mm 0.00 in0.0 mm
12:50 PM 79.2°F26.2°C 65.5°F18.6°C 63% 3.0 mph SSE4.8 kmh SSE 6.0 mph9.7 kmh 30.13 in1020.3 mb 0.00 in0.0 mm 0.00 in0.0 mm 0.00 in0.0 mm
12:55 PM 79.3°F26.3°C 65.6°F18.7°C 63% 3.0 mph SSE4.8 kmh SSE 6.0 mph9.7 kmh 30.12 in1020.0 mb 0.00 in0.0 mm 0.00 in0.0 mm 0.00 in0.0 mm
01:00 PM 79.6°F26.4°C 66.3°F19.1°C 64% 2.0 mph SE3.2 kmh SE 6.0 mph9.7 kmh 30.12 in1020.0 mb 0.00 in0.0 mm 0.00 in0.0 mm 0.00 in0.0 mm
01:05 PM 79.7°F26.5°C 66.4°F19.1°C 64% 3.0 mph SE4.8 kmh SE 6.0 mph9.7 kmh 30.12 in1020.0 mb 0.00 in0.0 mm 0.00 in0.0 mm 0.00 in0.0 mm
01:10 PM 79.4°F26.3°C 65.7°F18.7°C 63% 2.0 mph ESE3.2 kmh ESE 5.0 mph8.0 kmh 30.11 in1019.6 mb 0.00 in0.0 mm 0.00 in0.0 mm 0.00 in0.0 mm
01:15 PM 79.3°F26.3°C 65.1°F18.4°C 62% 2.0 mph E3.2 kmh E 5.0 mph8.0 kmh 30.11 in1019.6 mb 0.00 in0.0 mm 0.00 in0.0 mm 0.00 in0.0 mm
01:20 PM 79.7°F26.5°C 66.0°F18.9°C 63% 2.0 mph E3.2 kmh E 5.0 mph8.0 kmh 30.11 in1019.6 mb 0.00 in0.0 mm 0.00 in0.0 mm 0.00 in0.0 mm
01:25 PM 79.9°F26.6°C 66.6°F19.2°C 64% 2.0 mph E3.2 kmh E 5.0 mph8.0 kmh 30.11 in1019.6 mb 0.00 in0.0 mm 0.00 in0.0 mm 0.00 in0.0 mm
01:30 PM 80.1°F26.7°C 67.3°F19.6°C 65% 2.0 mph ESE3.2 kmh ESE 5.0 mph8.0 kmh 30.11 in1019.6 mb 0.00 in0.0 mm 0.00 in0.0 mm 0.00 in0.0 mm
01:35 PM 80.1°F26.7°C 67.3°F19.6°C 65% 2.0 mph ESE3.2 kmh ESE 4.0 mph6.4 kmh 30.11 in1019.6 mb 0.00 in0.0 mm 0.00 in0.0 mm 0.00 in0.0 mm
01:40 PM 79.9°F26.6°C 67.1°F19.5°C 65% 1.0 mph ESE1.6 kmh ESE 5.0 mph8.0 kmh 30.11 in1019.6 mb 0.00 in0.0 mm 0.00 in0.0 mm 0.00 in0.0 mm
01:45 PM 79.6°F26.4°C 66.8°F19.3°C 65% 2.0 mph E3.2 kmh E 5.0 mph8.0 kmh 30.11 in1019.6 mb 0.00 in0.0 mm 0.00 in0.0 mm 0.00 in0.0 mm
01:50 PM 79.3°F26.3°C 66.5°F19.2°C 65% 2.0 mph E3.2 kmh E 5.0 mph8.0 kmh 30.10 in1019.3 mb 0.00 in0.0 mm 0.00 in0.0 mm 0.00 in0.0 mm
01:55 PM 79.2°F26.2°C 66.0°F18.9°C 64% 2.0 mph NE3.2 kmh NE 4.0 mph6.4 kmh 30.10 in1019.3 mb 0.00 in0.0 mm 0.00 in0.0 mm 0.00 in0.0 mm
02:00 PM 80.0°F26.7°C 67.2°F19.6°C 65% 2.0 mph N3.2 kmh N 5.0 mph8.0 kmh 30.10 in1019.3 mb 0.00 in0.0 mm 0.00 in0.0 mm 0.00 in0.0 mm
02:05 PM 80.7°F27.1°C 68.3°F20.2°C 66% 3.0 mph N4.8 kmh N 6.0 mph9.7 kmh 30.09 in1019.0 mb 0.00 in0.0 mm 0.00 in0.0 mm 0.00 in0.0 mm
02:10 PM 81.0°F27.2°C 68.1°F20.1°C 65% 3.0 mph N4.8 kmh N 7.0 mph11.3 kmh 30.09 in1019.0 mb 0.00 in0.0 mm 0.00 in0.0 mm 0.00 in0.0 mm
02:15 PM 81.1°F27.3°C 68.2°F20.1°C 65% 4.0 mph NE6.4 kmh NE 9.0 mph14.5 kmh 30.09 in1019.0 mb 0.00 in0.0 mm 0.00 in0.0 mm 0.00 in0.0 mm
02:20 PM 81.1°F27.3°C 68.2°F20.1°C 65% 3.0 mph NE4.8 kmh NE 9.0 mph14.5 kmh 30.09 in1019.0 mb 0.00 in0.0 mm 0.00 in0.0 mm 0.00 in0.0 mm
02:25 PM 81.6°F27.6°C 68.7°F20.4°C 65% 3.0 mph NE4.8 kmh NE 8.0 mph12.9 kmh 30.08 in1018.6 mb 0.00 in0.0 mm 0.00 in0.0 mm 0.00 in0.0 mm
02:30 PM 82.2°F27.9°C 68.8°F20.4°C 64% 4.0 mph NE6.4 kmh NE 8.0 mph12.9 kmh 30.08 in1018.6 mb 0.00 in0.0 mm 0.00 in0.0 mm 0.00 in0.0 mm
02:35 PM 82.5°F28.1°C 68.6°F20.3°C 63% 4.0 mph NE6.4 kmh NE 7.0 mph11.3 kmh 30.08 in1018.6 mb 0.00 in0.0 mm 0.00 in0.0 mm 0.00 in0.0 mm
02:40 PM 82.5°F28.1°C 68.6°F20.3°C 63% 3.0 mph NE4.8 kmh NE 7.0 mph11.3 kmh 30.08 in1018.6 mb 0.00 in0.0 mm 0.00 in0.0 mm 0.00 in0.0 mm
02:45 PM 82.8°F28.2°C 68.9°F20.5°C 63% 3.0 mph NE4.8 kmh NE 5.0 mph8.0 kmh 30.07 in1018.3 mb 0.00 in0.0 mm 0.00 in0.0 mm 0.00 in0.0 mm
02:50 PM 83.3°F28.5°C 68.4°F20.2°C 61% 3.0 mph NE4.8 kmh NE 5.0 mph8.0 kmh 30.07 in1018.3 mb 0.00 in0.0 mm 0.00 in0.0 mm 0.00 in0.0 mm
02:55 PM 82.9°F28.3°C 67.6°F19.8°C 60% 2.0 mph NE3.2 kmh NE 5.0 mph8.0 kmh 30.07 in1018.3 mb 0.00 in0.0 mm 0.00 in0.0 mm 0.00 in0.0 mm
03:00 PM 82.0°F27.8°C 67.2°F19.6°C 61% 2.0 mph NE3.2 kmh NE 5.0 mph8.0 kmh 30.07 in1018.3 mb 0.00 in0.0 mm 0.00 in0.0 mm 0.00 in0.0 mm
03:05 PM 81.4°F27.4°C 67.1°F19.5°C 62% 2.0 mph NE3.2 kmh NE 5.0 mph8.0 kmh 30.07 in1018.3 mb 0.00 in0.0 mm 0.00 in0.0 mm 0.00 in0.0 mm
03:10 PM 81.2°F27.3°C 67.9°F19.9°C 64% 2.0 mph NE3.2 kmh NE 5.0 mph8.0 kmh 30.06 in1017.9 mb 0.00 in0.0 mm 0.00 in0.0 mm 0.00 in0.0 mm
03:15 PM 80.5°F26.9°C 68.1°F20.1°C 66% 3.0 mph NE4.8 kmh NE 6.0 mph9.7 kmh 30.06 in1017.9 mb 0.00 in0.0 mm 0.00 in0.0 mm 0.00 in0.0 mm
03:20 PM 80.6°F27.0°C 68.6°F20.3°C 67% 4.0 mph NNE6.4 kmh NNE 8.0 mph12.9 kmh 30.06 in1017.9 mb 0.00 in0.0 mm 0.00 in0.0 mm 0.00 in0.0 mm
03:25 PM 81.3°F27.4°C 68.9°F20.5°C 66% 4.0 mph NNE6.4 kmh NNE 8.0 mph12.9 kmh 30.05 in1017.6 mb 0.00 in0.0 mm 0.00 in0.0 mm 0.00 in0.0 mm
03:30 PM 81.9°F27.7°C 69.0°F20.6°C 65% 4.0 mph NNE6.4 kmh NNE 8.0 mph12.9 kmh 30.05 in1017.6 mb 0.00 in0.0 mm 0.00 in0.0 mm 0.00 in0.0 mm
03:35 PM 82.3°F27.9°C 68.4°F20.2°C 63% 4.0 mph NE6.4 kmh NE 8.0 mph12.9 kmh 30.05 in1017.6 mb 0.00 in0.0 mm 0.00 in0.0 mm 0.00 in0.0 mm
03:40 PM 82.5°F28.1°C 68.6°F20.3°C 63% 4.0 mph ENE6.4 kmh ENE 9.0 mph14.5 kmh 30.05 in1017.6 mb 0.00 in0.0 mm 0.00 in0.0 mm 0.00 in0.0 mm
03:45 PM 82.2°F27.9°C 68.3°F20.2°C 63% 4.0 mph ENE6.4 kmh ENE 12.0 mph19.3 kmh 30.04 in1017.3 mb 0.00 in0.0 mm 0.00 in0.0 mm 0.00 in0.0 mm
03:50 PM 82.3°F27.9°C 68.4°F20.2°C 63% 5.0 mph ENE8.0 kmh ENE 12.0 mph19.3 kmh 30.04 in1017.3 mb 0.00 in0.0 mm 0.00 in0.0 mm 0.00 in0.0 mm
03:55 PM 82.5°F28.1°C 68.2°F20.1°C 62% 4.0 mph E6.4 kmh E 8.0 mph12.9 kmh 30.04 in1017.3 mb 0.00 in0.0 mm 0.00 in0.0 mm 0.00 in0.0 mm
04:00 PM 82.3°F27.9°C 68.0°F20.0°C 62% 5.0 mph ENE8.0 kmh ENE 10.0 mph16.1 kmh 30.04 in1017.3 mb 0.00 in0.0 mm 0.00 in0.0 mm 0.00 in0.0 mm
04:05 PM 82.0°F27.8°C 68.2°F20.1°C 63% 5.0 mph NE8.0 kmh NE 10.0 mph16.1 kmh 30.04 in1017.3 mb 0.00 in0.0 mm 0.00 in0.0 mm 0.00 in0.0 mm
04:10 PM 82.1°F27.8°C 67.8°F19.9°C 62% 3.0 mph ENE4.8 kmh ENE 8.0 mph12.9 kmh 30.04 in1017.3 mb 0.00 in0.0 mm 0.00 in0.0 mm 0.00 in0.0 mm
04:15 PM 82.4°F28.0°C 68.5°F20.3°C 63% 3.0 mph ENE4.8 kmh ENE 7.0 mph11.3 kmh 30.03 in1016.9 mb 0.00 in0.0 mm 0.00 in0.0 mm 0.00 in0.0 mm
04:20 PM 82.7°F28.2°C 68.8°F20.4°C 63% 3.0 mph NE4.8 kmh NE 8.0 mph12.9 kmh 30.03 in1016.9 mb 0.00 in0.0 mm 0.00 in0.0 mm 0.00 in0.0 mm
04:25 PM 82.4°F28.0°C 68.5°F20.3°C 63% 4.0 mph E6.4 kmh E 8.0 mph12.9 kmh 30.03 in1016.9 mb 0.00 in0.0 mm 0.00 in0.0 mm 0.00 in0.0 mm
04:30 PM 81.9°F27.7°C 68.1°F20.1°C 63% 4.0 mph E6.4 kmh E 8.0 mph12.9 kmh 30.03 in1016.9 mb 0.00 in0.0 mm 0.00 in0.0 mm 0.00 in0.0 mm
04:35 PM 81.5°F27.5°C 68.1°F20.1°C 64% 4.0 mph E6.4 kmh E 8.0 mph12.9 kmh 30.03 in1016.9 mb 0.00 in0.0 mm 0.00 in0.0 mm 0.00 in0.0 mm
04:40 PM 81.3°F27.4°C 68.0°F20.0°C 64% 4.0 mph ENE6.4 kmh ENE 8.0 mph12.9 kmh 30.03 in1016.9 mb 0.00 in0.0 mm 0.00 in0.0 mm 0.00 in0.0 mm
04:45 PM 81.1°F27.3°C 68.2°F20.1°C 65% 3.0 mph ENE4.8 kmh ENE 8.0 mph12.9 kmh 30.03 in1016.9 mb 0.00 in0.0 mm 0.00 in0.0 mm 0.00 in0.0 mm
04:50 PM 81.0°F27.2°C 67.7°F19.8°C 64% 3.0 mph E4.8 kmh E 8.0 mph12.9 kmh 30.03 in1016.9 mb 0.00 in0.0 mm 0.00 in0.0 mm 0.00 in0.0 mm
04:55 PM 80.5°F26.9°C 67.2°F19.6°C 64% 4.0 mph ENE6.4 kmh ENE 8.0 mph12.9 kmh 30.03 in1016.9 mb 0.00 in0.0 mm 0.00 in0.0 mm 0.00 in0.0 mm
05:00 PM 79.9°F26.6°C 67.1°F19.5°C 65% 4.0 mph ENE6.4 kmh ENE 8.0 mph12.9 kmh 30.03 in1016.9 mb 0.00 in0.0 mm 0.00 in0.0 mm 0.00 in0.0 mm
05:05 PM 79.3°F26.3°C 66.5°F19.2°C 65% 4.0 mph ENE6.4 kmh ENE 8.0 mph12.9 kmh 30.03 in1016.9 mb 0.00 in0.0 mm 0.00 in0.0 mm 0.00 in0.0 mm
05:10 PM 78.9°F26.1°C 66.6°F19.2°C 66% 3.0 mph ENE4.8 kmh ENE 8.0 mph12.9 kmh 30.03 in1016.9 mb 0.00 in0.0 mm 0.00 in0.0 mm 0.00 in0.0 mm
05:15 PM 78.5°F25.8°C 66.2°F19.0°C 66% 3.0 mph ENE4.8 kmh ENE 6.0 mph9.7 kmh 30.03 in1016.9 mb 0.00 in0.0 mm 0.00 in0.0 mm 0.00 in0.0 mm
05:20 PM 78.2°F25.7°C 66.3°F19.1°C 67% 3.0 mph NE4.8 kmh NE 6.0 mph9.7 kmh 30.03 in1016.9 mb 0.00 in0.0 mm 0.00 in0.0 mm 0.00 in0.0 mm
05:25 PM 77.9°F25.5°C 66.1°F18.9°C 67% 3.0 mph NE4.8 kmh NE 5.0 mph8.0 kmh 30.03 in1016.9 mb 0.00 in0.0 mm 0.00 in0.0 mm 0.00 in0.0 mm
05:30 PM 77.6°F25.3°C 65.8°F18.8°C 67% 2.0 mph ENE3.2 kmh ENE 7.0 mph11.3 kmh 30.02 in1016.6 mb 0.00 in0.0 mm 0.00 in0.0 mm 0.00 in0.0 mm
05:35 PM 77.3°F25.2°C 65.9°F18.8°C 68% 3.0 mph E4.8 kmh E 7.0 mph11.3 kmh 30.02 in1016.6 mb 0.00 in0.0 mm 0.00 in0.0 mm 0.00 in0.0 mm
05:40 PM 77.1°F25.1°C 65.7°F18.7°C 68% 2.0 mph E3.2 kmh E 6.0 mph9.7 kmh 30.02 in1016.6 mb 0.00 in0.0 mm 0.00 in0.0 mm 0.00 in0.0 mm
05:45 PM 76.8°F24.9°C 65.9°F18.8°C 69% 1.0 mph E1.6 kmh E 3.0 mph4.8 kmh 30.03 in1016.9 mb 0.00 in0.0 mm 0.00 in0.0 mm 0.00 in0.0 mm
05:50 PM 76.5°F24.7°C 65.6°F18.7°C 69% 1.0 mph E1.6 kmh E 3.0 mph4.8 kmh 30.03 in1016.9 mb 0.00 in0.0 mm 0.00 in0.0 mm 0.00 in0.0 mm
05:55 PM 76.2°F24.6°C 64.4°F18.0°C 67% 1.0 mph E1.6 kmh E 2.0 mph3.2 kmh 30.04 in1017.3 mb 0.00 in0.0 mm 0.00 in0.0 mm 0.00 in0.0 mm
06:00 PM 75.7°F24.3°C 61.8°F16.6°C 62% 1.0 mph ESE1.6 kmh ESE 3.0 mph4.8 kmh 30.04 in1017.3 mb 0.00 in0.0 mm 0.00 in0.0 mm 0.00 in0.0 mm
06:05 PM 75.0°F23.9°C 58.2°F14.6°C 56% 2.0 mph S3.2 kmh S 3.0 mph4.8 kmh 30.04 in1017.3 mb 0.09 in2.3 mm 1.08 in27.4 mm 0.09 in2.3 mm
06:10 PM 73.8°F23.2°C 52.3°F11.3°C 47% 2.0 mph SW3.2 kmh SW 4.0 mph6.4 kmh 30.05 in1017.6 mb 0.17 in4.3 mm 0.96 in24.4 mm 0.17 in4.3 mm
06:15 PM 72.5°F22.5°C 44.0°F6.7°C 36% 2.0 mph SW3.2 kmh SW 4.0 mph6.4 kmh 30.04 in1017.3 mb 0.21 in5.3 mm 0.48 in12.2 mm 0.21 in5.3 mm
06:20 PM 71.5°F21.9°C 31.7°F-0.2°C 23% 2.0 mph SSW3.2 kmh SSW 6.0 mph9.7 kmh 30.05 in1017.6 mb 0.25 in6.4 mm 0.48 in12.2 mm 0.25 in6.4 mm
06:25 PM 70.2°F21.2°C 24.7°F-4.1°C 18% 5.0 mph S8.0 kmh S 11.0 mph17.7 kmh 30.04 in1017.3 mb 0.34 in8.6 mm 1.08 in27.4 mm 0.34 in8.6 mm
06:30 PM 69.1°F20.6°C 2.3°F-16.5°C 7% 5.0 mph SSE8.0 kmh SSE 11.0 mph17.7 kmh 30.04 in1017.3 mb 0.37 in9.4 mm 0.36 in9.1 mm 0.37 in9.4 mm
06:35 PM 68.7°F20.4°C -35.9°F-37.7°C 0% 3.0 mph SSE4.8 kmh SSE 8.0 mph12.9 kmh 30.04 in1017.3 mb 0.40 in10.2 mm 0.36 in9.1 mm 0.40 in10.2 mm
06:40 PM 68.5°F20.3°C -35.9°F-37.7°C 0% 2.0 mph SSE3.2 kmh SSE 3.0 mph4.8 kmh 30.04 in1017.3 mb 0.41 in10.4 mm 0.12 in3.0 mm 0.41 in10.4 mm
06:45 PM 68.4°F20.2°C -35.9°F-37.7°C 0% 1.0 mph SSE1.6 kmh SSE 3.0 mph4.8 kmh 30.04 in1017.3 mb 0.41 in10.4 mm 0.00 in0.0 mm 0.41 in10.4 mm
06:50 PM 68.3°F20.2°C -35.9°F-37.7°C 0% 1.0 mph SE1.6 kmh SE 5.0 mph8.0 kmh 30.04 in1017.3 mb 0.41 in10.4 mm 0.00 in0.0 mm 0.41 in10.4 mm
06:55 PM 68.3°F20.2°C -35.9°F-37.7°C 0% 1.0 mph ESE1.6 kmh ESE 5.0 mph8.0 kmh 30.04 in1017.3 mb 0.41 in10.4 mm 0.00 in0.0 mm 0.41 in10.4 mm
07:00 PM 68.2°F20.1°C -35.9°F-37.7°C 0% 1.0 mph E1.6 kmh E 5.0 mph8.0 kmh 30.04 in1017.3 mb 0.41 in10.4 mm 0.00 in0.0 mm 0.41 in10.4 mm
07:05 PM 68.3°F20.2°C -35.9°F-37.7°C 0% 1.0 mph E1.6 kmh E 5.0 mph8.0 kmh 30.04 in1017.3 mb 0.30 in7.6 mm 0.00 in0.0 mm 0.41 in10.4 mm
07:10 PM 68.4°F20.2°C -35.9°F-37.7°C 0% 1.0 mph E1.6 kmh E 5.0 mph8.0 kmh 30.04 in1017.3 mb 0.23 in5.8 mm 0.00 in0.0 mm 0.41 in10.4 mm
07:15 PM 68.4°F20.2°C -35.9°F-37.7°C 0% 1.0 mph E1.6 kmh E 3.0 mph4.8 kmh 30.05 in1017.6 mb 0.20 in5.1 mm 0.00 in0.0 mm 0.41 in10.4 mm
07:20 PM 68.4°F20.2°C -35.9°F-37.7°C 0% 2.0 mph NE3.2 kmh NE 3.0 mph4.8 kmh 30.05 in1017.6 mb 0.16 in4.1 mm 0.00 in0.0 mm 0.41 in10.4 mm
07:25 PM 68.3°F20.2°C -35.9°F-37.7°C 0% 2.0 mph NNE3.2 kmh NNE 4.0 mph6.4 kmh 30.05 in1017.6 mb 0.07 in1.8 mm 0.00 in0.0 mm 0.41 in10.4 mm
07:30 PM 68.3°F20.2°C -35.9°F-37.7°C 0% 2.0 mph NNE3.2 kmh NNE 4.0 mph6.4 kmh 30.05 in1017.6 mb 0.04 in1.0 mm 0.00 in0.0 mm 0.41 in10.4 mm
07:35 PM 68.2°F20.1°C -35.9°F-37.7°C 0% 1.0 mph N1.6 kmh N 3.0 mph4.8 kmh 30.05 in1017.6 mb 0.01 in0.3 mm 0.00 in0.0 mm 0.41 in10.4 mm
07:40 PM 68.2°F20.1°C -35.9°F-37.7°C 0% Calm Calm 1.0 mph1.6 kmh 30.05 in1017.6 mb 0.00 in0.0 mm 0.00 in0.0 mm 0.41 in10.4 mm
07:45 PM 68.1°F20.1°C -35.9°F-37.7°C 0% Calm Calm 1.0 mph1.6 kmh 30.05 in1017.6 mb 0.00 in0.0 mm 0.00 in0.0 mm 0.41 in10.4 mm
07:50 PM 68.0°F20.0°C -35.9°F-37.7°C 0% Calm Calm 1.0 mph1.6 kmh 30.04 in1017.3 mb 0.00 in0.0 mm 0.00 in0.0 mm 0.41 in10.4 mm
07:55 PM 67.9°F19.9°C -35.9°F-37.7°C 0% Calm Calm 1.0 mph1.6 kmh 30.05 in1017.6 mb 0.00 in0.0 mm 0.00 in0.0 mm 0.41 in10.4 mm
08:00 PM 67.8°F19.9°C -35.9°F-37.7°C 0% Calm Calm 1.0 mph1.6 kmh 30.05 in1017.6 mb 0.00 in0.0 mm 0.00 in0.0 mm 0.41 in10.4 mm
08:05 PM 67.7°F19.8°C -35.9°F-37.7°C 0% Calm Calm 1.0 mph1.6 kmh 30.05 in1017.6 mb 0.00 in0.0 mm 0.00 in0.0 mm 0.41 in10.4 mm
08:10 PM 67.6°F19.8°C -35.9°F-37.7°C 0% Calm Calm -- 30.05 in1017.6 mb 0.00 in0.0 mm 0.00 in0.0 mm 0.41 in10.4 mm
08:15 PM 67.6°F19.8°C -35.9°F-37.7°C 0% Calm Calm 1.0 mph1.6 kmh 30.05 in1017.6 mb 0.00 in0.0 mm 0.00 in0.0 mm 0.41 in10.4 mm
08:20 PM 67.6°F19.8°C -35.9°F-37.7°C 0% Calm Calm 1.0 mph1.6 kmh 30.05 in1017.6 mb 0.00 in0.0 mm 0.00 in0.0 mm 0.41 in10.4 mm
08:25 PM 67.7°F19.8°C -35.9°F-37.7°C 0% Calm Calm 2.0 mph3.2 kmh 30.04 in1017.3 mb 0.00 in0.0 mm 0.00 in0.0 mm 0.41 in10.4 mm
08:30 PM 67.7°F19.8°C -35.9°F-37.7°C 0% Calm Calm 2.0 mph3.2 kmh 30.05 in1017.6 mb 0.00 in0.0 mm 0.00 in0.0 mm 0.41 in10.4 mm
08:35 PM 67.8°F19.9°C -35.9°F-37.7°C 0% Calm Calm 2.0 mph3.2 kmh 30.05 in1017.6 mb 0.00 in0.0 mm 0.00 in0.0 mm 0.41 in10.4 mm
08:40 PM 67.8°F19.9°C -35.9°F-37.7°C 0% 1.0 mph N1.6 kmh N 2.0 mph3.2 kmh 30.05 in1017.6 mb 0.00 in0.0 mm 0.00 in0.0 mm 0.41 in10.4 mm
08:45 PM 67.8°F19.9°C -35.9°F-37.7°C 0% 1.0 mph N1.6 kmh N 2.0 mph3.2 kmh 30.05 in1017.6 mb 0.00 in0.0 mm 0.00 in0.0 mm 0.41 in10.4 mm
08:50 PM 67.8°F19.9°C -35.9°F-37.7°C 0% Calm Calm 2.0 mph3.2 kmh 30.05 in1017.6 mb 0.00 in0.0 mm 0.00 in0.0 mm 0.41 in10.4 mm
08:55 PM 67.8°F19.9°C -35.9°F-37.7°C 0% Calm Calm 2.0 mph3.2 kmh 30.05 in1017.6 mb 0.00 in0.0 mm 0.00 in0.0 mm 0.41 in10.4 mm
09:00 PM 67.8°F19.9°C -35.9°F-37.7°C 0% Calm Calm 2.0 mph3.2 kmh 30.06 in1017.9 mb 0.00 in0.0 mm 0.00 in0.0 mm 0.41 in10.4 mm
09:05 PM 67.7°F19.8°C -35.9°F-37.7°C 0% Calm Calm 2.0 mph3.2 kmh 30.06 in1017.9 mb 0.00 in0.0 mm 0.00 in0.0 mm 0.41 in10.4 mm
09:10 PM 67.8°F19.9°C -35.9°F-37.7°C 0% Calm Calm 2.0 mph3.2 kmh 30.06 in1017.9 mb 0.00 in0.0 mm 0.00 in0.0 mm 0.41 in10.4 mm
09:15 PM 67.8°F19.9°C -35.9°F-37.7°C 0% 1.0 mph N1.6 kmh N 2.0 mph3.2 kmh 30.06 in1017.9 mb 0.00 in0.0 mm 0.00 in0.0 mm 0.41 in10.4 mm
09:20 PM 67.9°F19.9°C -35.9°F-37.7°C 0% 1.0 mph N1.6 kmh N 3.0 mph4.8 kmh 30.06 in1017.9 mb 0.00 in0.0 mm 0.00 in0.0 mm 0.41 in10.4 mm
09:25 PM 67.9°F19.9°C -35.9°F-37.7°C 0% 1.0 mph N1.6 kmh N 3.0 mph4.8 kmh 30.06 in1017.9 mb 0.00 in0.0 mm 0.00 in0.0 mm 0.41 in10.4 mm
09:30 PM 67.9°F19.9°C -35.9°F-37.7°C 0% Calm Calm 2.0 mph3.2 kmh 30.06 in1017.9 mb 0.00 in0.0 mm 0.00 in0.0 mm 0.41 in10.4 mm
09:35 PM 67.9°F19.9°C -35.9°F-37.7°C 0% Calm Calm 2.0 mph3.2 kmh 30.06 in1017.9 mb 0.00 in0.0 mm 0.00 in0.0 mm 0.41 in10.4 mm
09:40 PM 67.9°F19.9°C -35.9°F-37.7°C 0% 1.0 mph N1.6 kmh N 2.0 mph3.2 kmh 30.06 in1017.9 mb 0.00 in0.0 mm 0.00 in0.0 mm 0.41 in10.4 mm
09:45 PM 67.9°F19.9°C -35.9°F-37.7°C 0% 1.0 mph N1.6 kmh N 3.0 mph4.8 kmh 30.06 in1017.9 mb 0.00 in0.0 mm 0.00 in0.0 mm 0.41 in10.4 mm
09:50 PM 67.8°F19.9°C -35.9°F-37.7°C 0% 1.0 mph N1.6 kmh N 3.0 mph4.8 kmh 30.06 in1017.9 mb 0.00 in0.0 mm 0.00 in0.0 mm 0.41 in10.4 mm
09:55 PM 67.8°F19.9°C -35.9°F-37.7°C 0% Calm Calm 2.0 mph3.2 kmh 30.06 in1017.9 mb 0.00 in0.0 mm 0.00 in0.0 mm 0.41 in10.4 mm
10:00 PM 67.8°F19.9°C -35.9°F-37.7°C 0% 1.0 mph NE1.6 kmh NE 3.0 mph4.8 kmh 30.06 in1017.9 mb 0.00 in0.0 mm 0.00 in0.0 mm 0.41 in10.4 mm
10:05 PM 67.9°F19.9°C -35.9°F-37.7°C 0% 2.0 mph NE3.2 kmh NE 3.0 mph4.8 kmh 30.06 in1017.9 mb 0.00 in0.0 mm 0.00 in0.0 mm 0.41 in10.4 mm
10:10 PM 67.9°F19.9°C -35.9°F-37.7°C 0% 2.0 mph NE3.2 kmh NE 3.0 mph4.8 kmh 30.06 in1017.9 mb 0.00 in0.0 mm 0.00 in0.0 mm 0.41 in10.4 mm
10:15 PM 67.8°F19.9°C -35.9°F-37.7°C 0% 1.0 mph NE1.6 kmh NE 2.0 mph3.2 kmh 30.06 in1017.9 mb 0.00 in0.0 mm 0.00 in0.0 mm 0.41 in10.4 mm
10:20 PM 67.7°F19.8°C -35.9°F-37.7°C 0% 1.0 mph NE1.6 kmh NE 2.0 mph3.2 kmh 30.07 in1018.3 mb 0.00 in0.0 mm 0.00 in0.0 mm 0.41 in10.4 mm
10:25 PM 67.7°F19.8°C -35.9°F-37.7°C 0% Calm Calm 1.0 mph1.6 kmh 30.07 in1018.3 mb 0.00 in0.0 mm 0.00 in0.0 mm 0.41 in10.4 mm
10:30 PM 67.6°F19.8°C -35.9°F-37.7°C 0% Calm Calm -- 30.07 in1018.3 mb 0.00 in0.0 mm 0.00 in0.0 mm 0.41 in10.4 mm
10:35 PM 67.6°F19.8°C -35.9°F-37.7°C 0% Calm Calm -- 30.07 in1018.3 mb 0.00 in0.0 mm 0.00 in0.0 mm 0.41 in10.4 mm
10:40 PM 67.7°F19.8°C -35.9°F-37.7°C 0% Calm Calm 2.0 mph3.2 kmh 30.07 in1018.3 mb 0.00 in0.0 mm 0.00 in0.0 mm 0.41 in10.4 mm
10:45 PM 67.7°F19.8°C -35.9°F-37.7°C 0% 1.0 mph NE1.6 kmh NE 2.0 mph3.2 kmh 30.08 in1018.6 mb 0.00 in0.0 mm 0.00 in0.0 mm 0.41 in10.4 mm
10:50 PM 67.6°F19.8°C -35.9°F-37.7°C 0% Calm Calm 2.0 mph3.2 kmh 30.07 in1018.3 mb 0.00 in0.0 mm 0.00 in0.0 mm 0.41 in10.4 mm
10:55 PM 67.6°F19.8°C -35.9°F-37.7°C 0% Calm Calm 1.0 mph1.6 kmh 30.07 in1018.3 mb 0.00 in0.0 mm 0.00 in0.0 mm 0.41 in10.4 mm
11:00 PM 67.5°F19.7°C -35.9°F-37.7°C 0% Calm Calm 1.0 mph1.6 kmh 30.07 in1018.3 mb 0.00 in0.0 mm 0.00 in0.0 mm 0.41 in10.4 mm
11:05 PM 67.5°F19.7°C -35.9°F-37.7°C 0% Calm Calm 2.0 mph3.2 kmh 30.07 in1018.3 mb 0.00 in0.0 mm 0.00 in0.0 mm 0.41 in10.4 mm
11:10 PM 67.4°F19.7°C -35.9°F-37.7°C 0% 1.0 mph NE1.6 kmh NE 2.0 mph3.2 kmh 30.07 in1018.3 mb 0.00 in0.0 mm 0.00 in0.0 mm 0.41 in10.4 mm
11:15 PM 67.3°F19.6°C -35.9°F-37.7°C 0% 1.0 mph NE1.6 kmh NE 2.0 mph3.2 kmh 30.07 in1018.3 mb 0.00 in0.0 mm 0.00 in0.0 mm 0.41 in10.4 mm
11:20 PM 67.2°F19.6°C -35.9°F-37.7°C 0% 1.0 mph NE1.6 kmh NE 2.0 mph3.2 kmh 30.07 in1018.3 mb 0.00 in0.0 mm 0.00 in0.0 mm 0.41 in10.4 mm
11:25 PM 67.0°F19.4°C -35.9°F-37.7°C 0% Calm Calm 1.0 mph1.6 kmh 30.07 in1018.3 mb 0.00 in0.0 mm 0.00 in0.0 mm 0.41 in10.4 mm
11:30 PM 66.8°F19.3°C -35.9°F-37.7°C 0% Calm Calm 1.0 mph1.6 kmh 30.07 in1018.3 mb 0.01 in0.3 mm 0.12 in3.0 mm 0.42 in10.7 mm
11:35 PM 66.6°F19.2°C -35.9°F-37.7°C 0% Calm Calm 1.0 mph1.6 kmh 30.07 in1018.3 mb 0.01 in0.3 mm 0.00 in0.0 mm 0.42 in10.7 mm
11:40 PM 66.4°F19.1°C -35.9°F-37.7°C 0% Calm Calm 1.0 mph1.6 kmh 30.07 in1018.3 mb 0.01 in0.3 mm 0.00 in0.0 mm 0.42 in10.7 mm
11:45 PM 66.2°F19.0°C -35.9°F-37.7°C 0% Calm Calm 1.0 mph1.6 kmh 30.06 in1017.9 mb 0.01 in0.3 mm 0.00 in0.0 mm 0.42 in10.7 mm
11:50 PM 65.9°F18.8°C -35.9°F-37.7°C 0% Calm Calm 1.0 mph1.6 kmh 30.07 in1018.3 mb 0.01 in0.3 mm 0.00 in0.0 mm 0.42 in10.7 mm
11:55 PM 65.7°F18.7°C -35.9°F-37.7°C 0% Calm Calm 1.0 mph1.6 kmh 30.06 in1017.9 mb 0.01 in0.3 mm 0.00 in0.0 mm 0.42 in10.7 mm